Time;durP1;ratioP1;P1;durP2;ratioP2;P2;SDS_P1;SDS_P2;PMS_P1;PMS_P2;Temp;Humidity;BMP_temperature;BMP_pressure;BME280_temperature;BME280_humidity;BME280_pressure;Samples;Min_cycle;Max_cycle;Signal;HPM_P1;HPM_P2
2024/04/06 00:02:24;;;;;;;17.75;4.82;;;13.00;99.90;;;;;;4938257;28;39231;-82
2024/04/06 00:04:56;;;;;;;15.65;4.60;;;13.10;99.90;;;;;;4939617;28;37046;-81
2024/04/06 00:07:23;;;;;;;17.67;4.55;;;13.00;99.90;;;;;;4933714;28;36161;-81
2024/04/06 00:09:49;;;;;;;13.23;4.63;;;13.00;99.90;;;;;;4933512;28;38275;-81
2024/04/06 00:12:15;;;;;;;19.73;5.47;;;13.10;99.90;;;;;;4934803;28;38860;-81
2024/04/06 00:14:42;;;;;;;14.32;5.57;;;13.10;99.90;;;;;;4936664;29;38470;-81
2024/04/06 00:17:09;;;;;;;14.90;5.32;;;13.10;99.90;;;;;;4935045;28;38142;-81
2024/04/06 00:19:35;;;;;;;17.23;5.68;;;13.10;99.90;;;;;;4938381;28;39126;-81
2024/04/06 00:22:02;;;;;;;14.35;5.32;;;13.20;99.90;;;;;;4934632;28;38746;-81
2024/04/06 00:24:28;;;;;;;15.85;5.63;;;13.20;99.90;;;;;;4932658;28;39806;-81
2024/04/06 00:26:55;;;;;;;14.77;5.75;;;13.20;99.90;;;;;;4937728;28;37075;-81
2024/04/06 00:29:21;;;;;;;13.30;5.32;;;13.20;99.90;;;;;;4937615;28;39184;-81
2024/04/06 00:31:47;;;;;;;15.02;6.00;;;13.20;99.90;;;;;;4932950;28;37084;-82
2024/04/06 00:34:15;;;;;;;16.33;5.93;;;13.20;99.90;;;;;;4934185;28;37819;-81
2024/04/06 00:36:42;;;;;;;8.48;4.97;;;13.30;99.90;;;;;;4945800;28;37592;-82
2024/04/06 00:39:08;;;;;;;13.85;6.18;;;13.30;99.90;;;;;;4936603;28;40243;-81
2024/04/06 00:41:35;;;;;;;11.80;6.20;;;13.40;99.90;;;;;;4935831;28;38642;-81
2024/04/06 00:44:02;;;;;;;9.27;5.20;;;13.50;99.90;;;;;;4935416;28;40358;-81
2024/04/06 00:46:35;;;;;;;16.33;6.78;;;13.50;99.90;;;;;;4936583;28;38004;-81
2024/04/06 00:49:01;;;;;;;14.25;7.45;;;13.50;99.90;;;;;;4935763;28;37257;-81
2024/04/06 00:51:27;;;;;;;12.35;6.00;;;13.60;99.90;;;;;;4932792;28;48294;-81
2024/04/06 00:53:53;;;;;;;8.90;5.55;;;13.70;99.90;;;;;;4929117;28;38447;-81
2024/04/06 00:56:20;;;;;;;7.10;5.80;;;13.80;99.90;;;;;;4932630;28;37466;-80
2024/04/06 00:58:47;;;;;;;13.32;5.90;;;13.90;99.90;;;;;;4941368;28;38177;-81
2024/04/06 01:03:50;;;;;;;11.38;4.72;;;13.90;99.90;;;;;;1801464;23;20055;-80
2024/04/06 01:06:18;;;;;;;10.40;5.63;;;13.90;99.90;;;;;;4961515;28;36311;-80
2024/04/06 01:08:54;;;;;;;8.38;5.28;;;14.00;99.90;;;;;;4973577;28;38146;-81
2024/04/06 01:11:22;;;;;;;9.35;4.53;;;13.90;99.90;;;;;;4977410;28;38664;-79
2024/04/06 01:13:51;;;;;;;11.52;4.70;;;14.00;99.90;;;;;;4976293;28;38553;-83
2024/04/06 01:16:31;;;;;;;9.32;4.65;;;14.00;99.90;;;;;;4976643;28;37999;-80
2024/04/06 01:19:19;;;;;;;8.55;4.30;;;14.10;99.90;;;;;;4972259;28;38988;-82
2024/04/06 01:21:49;;;;;;;8.32;4.45;;;14.20;99.90;;;;;;4988040;28;50317;-81
2024/04/06 01:24:45;;;;;;;9.35;4.15;;;14.20;99.90;;;;;;4981768;28;37442;-80
2024/04/06 01:27:16;;;;;;;6.05;4.05;;;14.20;99.90;;;;;;4977648;28;36233;-81
2024/04/06 01:29:43;;;;;;;8.32;3.70;;;14.10;99.90;;;;;;4966229;28;38089;-80
2024/04/06 01:32:10;;;;;;;8.32;4.60;;;14.10;99.90;;;;;;4961486;28;38552;-82
2024/04/06 01:34:36;;;;;;;7.28;4.10;;;14.10;99.90;;;;;;4955970;28;37794;-82
2024/04/06 01:37:06;;;;;;;9.85;4.55;;;14.10;99.90;;;;;;4964779;28;36208;-81
2024/04/06 01:39:34;;;;;;;9.45;4.55;;;14.00;99.90;;;;;;4968236;28;39288;-80
2024/04/06 01:42:03;;;;;;;7.35;4.47;;;14.00;99.90;;;;;;4966219;28;40493;-80
2024/04/06 01:44:29;;;;;;;6.72;4.10;;;14.00;99.90;;;;;;4956468;28;47765;-82
2024/04/06 01:46:56;;;;;;;11.25;4.32;;;14.00;99.90;;;;;;4957008;28;35742;-81
2024/04/06 01:49:26;;;;;;;8.13;5.07;;;14.00;99.90;;;;;;4957526;28;39711;-81
2024/04/06 01:51:56;;;;;;;7.72;4.65;;;13.90;99.90;;;;;;4960451;28;39027;-81
2024/04/06 01:54:28;;;;;;;13.40;5.55;;;13.90;99.90;;;;;;4967320;28;38602;-82
2024/04/06 01:56:54;;;;;;;10.20;4.15;;;13.90;99.90;;;;;;4966404;28;36652;-80
2024/04/06 02:03:07;;;;;;;11.25;4.78;;;13.90;99.90;;;;;;4957194;28;50166;-84
2024/04/06 02:05:50;;;;;;;8.05;4.90;;;13.90;99.90;;;;;;4964207;28;48700;-82
2024/04/06 02:08:17;;;;;;;11.95;4.75;;;13.90;99.90;;;;;;4947747;28;36340;-83
2024/04/06 02:10:44;;;;;;;8.23;4.70;;;13.90;99.90;;;;;;4958413;28;38071;-82
2024/04/06 02:13:11;;;;;;;8.55;4.40;;;13.90;99.90;;;;;;4967013;28;37765;-82
2024/04/06 02:15:41;;;;;;;9.93;5.13;;;13.90;99.90;;;;;;4959768;28;37306;-82
2024/04/06 02:18:08;;;;;;;8.32;4.43;;;13.90;99.90;;;;;;4958606;28;36976;-84
2024/04/06 02:20:34;;;;;;;7.57;5.18;;;13.90;99.90;;;;;;4959469;28;38562;-84
2024/04/06 02:23:01;;;;;;;9.07;5.05;;;13.90;99.90;;;;;;4961136;28;38620;-81
2024/04/06 02:25:28;;;;;;;9.93;5.60;;;13.90;99.90;;;;;;4953405;28;47002;-81
2024/04/06 02:27:55;;;;;;;9.52;4.97;;;13.90;99.90;;;;;;4952215;28;36490;-82
2024/04/06 02:30:22;;;;;;;9.90;6.28;;;13.80;99.90;;;;;;4954084;28;38970;-83
2024/04/06 02:32:51;;;;;;;12.13;7.40;;;13.70;99.90;;;;;;4963137;28;37524;-83
2024/04/06 02:35:19;;;;;;;8.73;6.07;;;13.80;99.90;;;;;;4961965;28;38585;-83
2024/04/06 02:37:57;;;;;;;13.30;8.52;;;13.70;99.90;;;;;;4964677;28;36484;-81
2024/04/06 02:41:04;;;;;;;12.40;7.00;;;13.70;99.90;;;;;;4964427;28;39263;-81
2024/04/06 02:43:32;;;;;;;13.77;8.45;;;13.70;99.90;;;;;;4950216;28;48402;-81
2024/04/06 02:46:00;;;;;;;15.95;7.47;;;13.60;99.90;;;;;;4961804;28;37156;-81
2024/04/06 02:48:38;;;;;;;14.43;7.72;;;13.60;99.90;;;;;;4974095;28;36595;-80
2024/04/06 02:51:20;;;;;;;17.38;8.07;;;13.60;99.90;;;;;;4965875;28;38351;-79
2024/04/06 02:54:00;;;;;;;17.42;8.77;;;13.60;99.90;;;;;;4965950;28;38761;-80
2024/04/06 02:56:34;;;;;;;15.38;9.55;;;13.50;99.90;;;;;;4963976;28;36955;-80
2024/04/06 02:59:21;;;;;;;15.65;8.55;;;13.60;99.90;;;;;;4967655;28;37024;-81
2024/04/06 03:01:50;;;;;;;12.40;8.07;;;13.50;99.90;;;;;;4950614;28;50192;-79
2024/04/06 03:04:19;;;;;;;17.73;8.32;;;13.50;99.90;;;;;;4962448;28;38788;-81
2024/04/06 03:07:11;;;;;;;11.25;7.28;;;13.50;99.90;;;;;;4972094;28;39277;-79
2024/04/06 03:09:39;;;;;;;14.05;8.80;;;13.50;99.90;;;;;;4966260;28;49772;-80
2024/04/06 03:12:19;;;;;;;11.00;6.93;;;13.50;99.90;;;;;;4943824;28;38313;-80
2024/04/06 03:15:10;;;;;;;12.13;7.47;;;13.40;99.90;;;;;;4970875;28;39376;-80
2024/04/06 03:17:51;;;;;;;8.05;6.82;;;13.40;99.90;;;;;;4952376;28;48415;-80
2024/04/06 03:20:32;;;;;;;15.13;7.00;;;13.40;99.90;;;;;;4961534;28;38464;-80
2024/04/06 03:23:23;;;;;;;9.80;6.47;;;13.40;99.90;;;;;;4963915;28;38418;-81
2024/04/06 03:26:15;;;;;;;13.43;6.65;;;13.30;99.90;;;;;;4952352;28;48503;-81
2024/04/06 03:28:52;;;;;;;9.70;5.35;;;13.40;99.90;;;;;;4967244;28;49149;-79
2024/04/06 03:31:19;;;;;;;11.70;6.47;;;13.30;99.90;;;;;;4950538;28;36242;-78
2024/04/06 03:37:23;;;;;;;7.73;5.53;;;13.40;99.90;;;;;;4953165;28;50022;-79
2024/04/06 03:39:52;;;;;;;11.02;5.50;;;13.30;99.90;;;;;;4960508;28;39464;-80
2024/04/06 03:42:34;;;;;;;10.95;6.03;;;13.30;99.90;;;;;;4964172;28;37997;-79
2024/04/06 03:45:11;;;;;;;7.20;5.38;;;13.30;99.90;;;;;;4958947;28;38291;-81
2024/04/06 03:47:52;;;;;;;11.73;5.78;;;13.30;99.90;;;;;;4966474;28;48011;-79
2024/04/06 03:50:30;;;;;;;9.23;5.85;;;13.20;99.90;;;;;;4949472;28;38674;-82
2024/04/06 03:53:07;;;;;;;9.90;5.40;;;13.30;99.90;;;;;;4981212;28;37902;-83
2024/04/06 03:56:11;;;;;;;10.02;5.32;;;13.20;99.90;;;;;;4963887;28;50235;-79
2024/04/06 03:59:18;;;;;;;8.18;4.65;;;13.20;99.90;;;;;;4949477;28;48836;-81
2024/04/06 04:01:52;;;;;;;9.30;5.07;;;13.10;99.90;;;;;;4952480;28;50335;-80
2024/04/06 04:04:20;;;;;;;8.35;5.43;;;13.00;99.90;;;;;;4950908;28;38519;-80
2024/04/06 04:06:47;;;;;;;8.35;4.82;;;12.90;99.90;;;;;;4971387;28;39579;-83
2024/04/06 04:09:20;;;;;;;14.07;6.70;;;12.90;99.90;;;;;;4983578;28;39075;-82
2024/04/06 04:11:51;;;;;;;8.43;5.40;;;12.80;99.90;;;;;;4964916;28;38362;-81
2024/04/06 04:14:27;;;;;;;11.02;5.82;;;12.80;99.90;;;;;;4956918;28;37063;-81
2024/04/06 04:17:09;;;;;;;10.40;5.43;;;12.80;99.90;;;;;;4964565;28;38736;-80
2024/04/06 04:19:42;;;;;;;13.15;6.78;;;12.90;99.90;;;;;;4962073;28;47806;-79
2024/04/06 04:22:21;;;;;;;10.77;6.75;;;12.90;99.90;;;;;;4954239;28;38318;-81
2024/04/06 04:24:53;;;;;;;13.18;7.43;;;12.90;99.90;;;;;;4975865;28;38240;-80
2024/04/06 04:27:32;;;;;;;11.90;6.95;;;12.80;99.90;;;;;;4946635;28;40154;-80
2024/04/06 04:30:15;;;;;;;12.40;7.30;;;12.80;99.90;;;;;;4965994;28;37903;-80
2024/04/06 04:32:58;;;;;;;9.57;6.88;;;12.80;99.90;;;;;;4968688;28;48048;-80
2024/04/06 04:35:29;;;;;;;12.82;6.82;;;12.90;99.90;;;;;;4932440;28;37472;-80
2024/04/06 04:38:05;;;;;;;10.93;6.28;;;12.90;99.90;;;;;;4951600;28;38192;-80
2024/04/06 04:40:59;;;;;;;10.80;6.90;;;12.90;99.90;;;;;;4932647;28;50260;-80
2024/04/06 04:43:27;;;;;;;11.85;7.00;;;12.80;99.90;;;;;;5037347;23;38513;-81
2024/04/06 04:45:56;;;;;;;10.65;6.70;;;12.90;99.90;;;;;;4943506;28;37275;-81
2024/04/06 04:49:16;;;;;;;7.80;6.25;;;12.90;99.90;;;;;;4943980;28;38997;-80
2024/04/06 04:51:46;;;;;;;14.80;7.35;;;12.90;99.90;;;;;;4937473;28;50296;-80
2024/04/06 04:54:36;;;;;;;12.10;6.45;;;12.90;99.90;;;;;;4961463;28;38131;-80
2024/04/06 04:57:08;;;;;;;15.23;7.70;;;12.90;99.90;;;;;;4936267;28;37253;-79
2024/04/06 04:59:36;;;;;;;16.00;7.35;;;12.90;99.90;;;;;;4942737;28;38639;-80
2024/04/06 05:02:40;;;;;;;11.73;6.43;;;13.00;99.90;;;;;;4942580;28;39692;-79
2024/04/06 05:05:13;;;;;;;14.77;7.47;;;13.10;99.90;;;;;;4955182;28;39438;-80
2024/04/06 05:07:54;;;;;;;10.40;5.97;;;13.10;99.90;;;;;;4955971;28;37519;-81
2024/04/06 05:10:23;;;;;;;11.07;6.95;;;13.10;99.90;;;;;;4943327;28;40245;-80
2024/04/06 05:13:15;;;;;;;11.85;6.90;;;13.10;99.90;;;;;;4961942;28;39893;-80
2024/04/06 05:16:04;;;;;;;7.75;5.07;;;13.10;99.90;;;;;;4944213;28;48718;-79
2024/04/06 05:18:43;;;;;;;10.85;5.50;;;13.10;99.90;;;;;;4953362;28;49868;-80
2024/04/06 05:21:17;;;;;;;10.75;6.10;;;13.20;99.90;;;;;;4951288;28;38807;-81
2024/04/06 05:23:46;;;;;;;13.15;5.30;;;13.10;99.90;;;;;;4934521;28;38464;-81
2024/04/06 05:26:18;;;;;;;11.45;5.32;;;13.10;99.90;;;;;;4945292;28;39071;-80
2024/04/06 05:28:54;;;;;;;10.77;5.63;;;13.10;99.90;;;;;;4937155;28;36659;-81
2024/04/06 05:31:22;;;;;;;8.55;5.47;;;13.10;99.90;;;;;;4958804;28;38072;-80
2024/04/06 05:34:04;;;;;;;10.27;4.93;;;13.10;99.90;;;;;;4953973;28;38759;-79
2024/04/06 05:36:32;;;;;;;10.18;5.53;;;13.20;99.90;;;;;;4940040;28;47949;-79
2024/04/06 05:39:01;;;;;;;11.35;6.20;;;13.20;99.90;;;;;;4951178;28;36630;-80
2024/04/06 05:42:19;;;;;;;7.20;4.90;;;13.20;99.90;;;;;;4931825;28;38394;-82
2024/04/06 05:45:04;;;;;;;10.13;5.40;;;13.20;99.90;;;;;;5101991;23;20334;-81
2024/04/06 05:47:31;;;;;;;8.60;5.22;;;13.20;99.90;;;;;;4959363;28;48602;-81
2024/04/06 05:49:57;;;;;;;11.38;5.53;;;13.20;99.90;;;;;;5632851;23;37233;-81
2024/04/06 05:52:30;;;;;;;12.30;5.88;;;13.20;99.90;;;;;;4963333;28;39601;-82
2024/04/06 05:55:26;;;;;;;;;;;13.30;99.90;;;;;;4949184;28;38377;-82
2024/04/06 05:58:13;;;;;;;9.05;5.47;;;13.30;99.90;;;;;;5117598;23;40443;-81
2024/04/06 06:00:43;;;;;;;9.70;5.38;;;13.40;99.90;;;;;;5190310;23;36906;-82
2024/04/06 06:14:51;;;;;;;8.23;5.00;;;13.70;99.90;;;;;;5000353;23;20059;-84
2024/04/06 06:17:55;;;;;;;9.20;4.45;;;13.70;99.90;;;;;;4968408;28;37567;-82
2024/04/06 06:21:08;;;;;;;6.55;3.85;;;13.80;99.90;;;;;;4976067;28;39297;-81
2024/04/06 06:23:59;;;;;;;14.02;4.82;;;14.00;99.90;;;;;;4946174;28;49051;-83
2024/04/06 06:30:07;;;;;;;6.35;3.70;;;14.20;99.90;;;;;;5076260;23;20048;-83
2024/04/06 06:32:34;;;;;;;7.00;3.67;;;14.40;99.90;;;;;;4947792;28;39329;-83
2024/04/06 06:35:01;;;;;;;5.65;3.83;;;14.50;99.90;;;;;;4934818;28;37028;-84
2024/04/06 06:40:35;;;;;;;8.30;3.47;;;14.80;99.90;;;;;;4988514;23;20051;-82
2024/04/06 06:43:01;;;;;;;9.93;3.70;;;14.80;99.90;;;;;;4963297;28;37427;-84
2024/04/06 06:45:28;;;;;;;6.05;2.72;;;14.80;99.90;;;;;;4958458;28;48156;-83
2024/04/06 06:47:55;;;;;;;6.18;2.80;;;14.80;99.90;;;;;;4959311;28;39229;-83
2024/04/06 06:50:21;;;;;;;3.63;2.25;;;14.90;99.90;;;;;;4951900;28;37987;-84
2024/04/06 06:52:47;;;;;;;4.97;2.65;;;15.00;99.90;;;;;;4957662;28;35836;-83
2024/04/06 06:58:23;;;;;;;4.70;2.67;;;15.10;99.90;;;;;;4989329;23;20064;-83
2024/04/06 07:00:50;;;;;;;7.80;2.58;;;15.20;99.10;;;;;;4913833;29;38342;-85
2024/04/06 07:03:16;;;;;;;9.57;2.45;;;15.30;99.90;;;;;;4910280;28;38427;-85
2024/04/06 07:05:46;;;;;;;4.75;2.35;;;15.40;94.40;;;;;;4919826;28;35970;-83
2024/04/06 07:08:12;;;;;;;6.38;1.92;;;15.50;67.70;;;;;;4907129;28;37450;-82
2024/04/06 07:10:43;;;;;;;6.13;2.30;;;15.70;90.50;;;;;;4905423;29;37507;-84
2024/04/06 07:13:09;;;;;;;5.13;2.08;;;15.80;60.60;;;;;;4902218;28;39100;-85
2024/04/06 07:15:35;;;;;;;5.97;2.72;;;16.00;45.20;;;;;;4906011;28;38204;-85
2024/04/06 07:18:01;;;;;;;4.47;2.35;;;16.10;47.30;;;;;;4904322;28;40480;-87
2024/04/06 07:20:28;;;;;;;4.97;2.38;;;16.20;40.40;;;;;;4913828;28;48245;-85
2024/04/06 07:22:54;;;;;;;7.63;2.53;;;16.30;40.60;;;;;;4924700;28;41191;-85
2024/04/06 07:25:20;;;;;;;2.55;1.75;;;16.30;27.10;;;;;;4914395;28;37120;-85
2024/04/06 07:27:46;;;;;;;7.30;2.47;;;16.30;28.30;;;;;;4912816;28;40311;-83
2024/04/06 07:30:13;;;;;;;3.47;1.80;;;16.30;24.40;;;;;;4916733;28;38882;-84
2024/04/06 07:32:39;;;;;;;4.35;1.92;;;16.30;18.80;;;;;;4915807;28;39220;-86
2024/04/06 07:35:10;;;;;;;4.32;1.92;;;16.30;21.20;;;;;;4906860;28;38177;-84
2024/04/06 07:37:36;;;;;;;5.45;2.28;;;16.40;19.10;;;;;;4906295;28;38365;-85
2024/04/06 07:40:05;;;;;;;4.00;1.70;;;16.40;25.00;;;;;;4911287;28;38560;-86
2024/04/06 07:42:32;;;;;;;4.82;2.22;;;16.50;9.80;;;;;;4907697;28;47508;-86
2024/04/06 07:44:58;;;;;;;5.18;2.15;;;16.60;12.00;;;;;;4913830;28;37678;-87
2024/04/06 07:47:25;;;;;;;4.35;1.83;;;16.70;2.50;;;;;;4911964;28;40017;-89
2024/04/06 07:49:52;;;;;;;3.55;1.75;;;16.80;1.00;;;;;;4913036;28;39852;-89
2024/04/06 07:52:19;;;;;;;4.28;2.00;;;16.80;1.00;;;;;;4909353;28;37166;-89
2024/04/06 07:54:50;;;;;;;4.43;1.52;;;16.90;1.00;;;;;;4909800;28;36558;-88
2024/04/06 07:57:16;;;;;;;4.93;1.98;;;17.10;1.00;;;;;;4906750;28;39762;-89
2024/04/06 07:59:43;;;;;;;3.63;1.90;;;17.20;1.00;;;;;;4904724;29;39229;-88
2024/04/06 08:02:10;;;;;;;8.73;1.90;;;17.40;1.00;;;;;;4903591;28;36849;-90
2024/04/06 08:04:37;;;;;;;2.42;1.38;;;17.60;1.00;;;;;;4903224;28;38089;-88
2024/04/06 08:07:05;;;;;;;4.95;1.52;;;17.70;1.00;;;;;;4905668;28;39027;-89
2024/04/06 08:09:31;;;;;;;3.70;1.77;;;17.70;1.00;;;;;;4906668;28;37684;-88
2024/04/06 08:11:57;;;;;;;1.83;1.38;;;17.80;1.00;;;;;;4907360;29;37724;-87
2024/04/06 08:14:23;;;;;;;6.88;1.55;;;17.90;1.00;;;;;;4906872;28;36365;-87
2024/04/06 08:16:49;;;;;;;4.43;1.17;;;17.90;1.00;;;;;;4920083;28;38310;-87
2024/04/06 08:19:15;;;;;;;4.15;1.70;;;18.00;1.00;;;;;;4909551;28;39101;-88
2024/04/06 08:21:41;;;;;;;3.45;1.52;;;18.10;1.00;;;;;;4905247;29;39813;-88
2024/04/06 08:24:07;;;;;;;3.75;1.33;;;18.00;1.00;;;;;;4910483;28;37983;-87
2024/04/06 08:26:34;;;;;;;3.65;1.35;;;18.10;1.00;;;;;;4912641;28;37840;-88
2024/04/06 08:29:00;;;;;;;6.55;1.60;;;18.10;1.00;;;;;;4908072;28;38268;-88
2024/04/06 08:31:26;;;;;;;2.95;1.23;;;18.10;1.00;;;;;;4914165;29;38466;-89
2024/04/06 08:33:54;;;;;;;3.85;1.30;;;18.20;1.00;;;;;;4914271;28;35959;-90
2024/04/06 08:36:21;;;;;;;3.22;1.60;;;18.20;1.00;;;;;;4908208;28;39723;-87
2024/04/06 08:38:47;;;;;;;2.80;1.50;;;18.30;1.00;;;;;;4912866;29;37612;-87
2024/04/06 08:41:13;;;;;;;3.85;1.58;;;18.30;1.00;;;;;;4911164;28;38394;-86
2024/04/06 08:43:44;;;;;;;2.55;1.65;;;18.40;1.00;;;;;;4910580;29;38537;-86
2024/04/06 08:46:10;;;;;;;2.38;1.23;;;18.50;1.00;;;;;;4919877;28;37691;-86
2024/04/06 08:48:38;;;;;;;2.88;1.25;;;18.60;1.00;;;;;;4921479;29;38635;-85
2024/04/06 08:51:07;;;;;;;2.33;1.45;;;18.60;1.00;;;;;;4914745;28;37460;-83
2024/04/06 08:53:33;;;;;;;4.22;1.48;;;18.70;1.00;;;;;;4928725;28;36547;-85
2024/04/06 08:56:08;;;;;;;3.88;1.75;;;18.80;1.00;;;;;;4915346;29;40644;-85
2024/04/06 08:58:35;;;;;;;2.17;1.40;;;18.90;1.00;;;;;;4910769;29;48346;-86
2024/04/06 09:01:02;;;;;;;5.03;1.60;;;19.00;1.00;;;;;;4913321;29;36897;-84
2024/04/06 09:03:29;;;;;;;2.78;1.30;;;19.00;1.00;;;;;;4924892;29;47888;-86
2024/04/06 09:05:55;;;;;;;2.03;1.27;;;19.10;1.00;;;;;;4923881;29;38934;-86
2024/04/06 09:08:21;;;;;;;3.92;1.50;;;19.20;1.00;;;;;;4922719;28;39105;-84
2024/04/06 09:10:52;;;;;;;2.33;1.05;;;19.30;1.00;;;;;;4914127;29;38075;-85
2024/04/06 09:13:20;;;;;;;5.35;1.40;;;19.30;1.00;;;;;;4915042;28;37444;-85
2024/04/06 09:15:46;;;;;;;7.57;1.40;;;19.40;1.00;;;;;;4926129;29;38858;-84
2024/04/06 09:18:16;;;;;;;3.47;1.20;;;19.40;1.00;;;;;;4924338;28;39021;-84
2024/04/06 09:20:49;;;;;;;3.17;1.10;;;19.50;1.00;;;;;;4929350;28;38678;-85
2024/04/06 09:23:16;;;;;;;3.42;1.60;;;19.50;1.00;;;;;;4918641;28;36360;-85
2024/04/06 09:25:45;;;;;;;5.28;1.60;;;19.50;1.00;;;;;;4913892;29;37744;-86
2024/04/06 09:28:13;;;;;;;4.95;1.50;;;19.60;1.00;;;;;;4910745;28;37272;-85
2024/04/06 09:30:43;;;;;;;3.55;1.40;;;19.70;99.90;;;;;;4910629;29;38300;-85
2024/04/06 09:33:12;;;;;;;5.32;1.58;;;19.80;99.90;;;;;;4908057;28;37629;-85
2024/04/06 09:35:39;;;;;;;2.92;1.05;;;19.90;99.90;;;;;;4912631;28;40387;-85
2024/04/06 09:38:13;;;;;;;3.70;1.45;;;20.10;99.90;;;;;;4928804;28;37560;-85
2024/04/06 09:40:43;;;;;;;3.88;1.10;;;20.00;1.00;;;;;;4925266;28;39796;-86
2024/04/06 09:43:10;;;;;;;4.43;1.40;;;20.10;1.00;;;;;;4909315;29;38706;-84
2024/04/06 09:45:37;;;;;;;4.20;0.98;;;20.00;1.00;;;;;;4911488;29;38964;-85
2024/04/06 09:48:05;;;;;;;2.97;1.35;;;20.00;99.90;;;;;;4906822;29;39033;-85
2024/04/06 09:50:32;;;;;;;7.63;1.30;;;20.10;1.00;;;;;;4903119;29;37057;-85
2024/04/06 09:52:59;;;;;;;4.03;1.50;;;20.10;1.00;;;;;;4910456;28;36958;-85
2024/04/06 09:55:29;;;;;;;7.20;1.42;;;20.10;1.00;;;;;;4908251;28;38694;-86
2024/04/06 09:57:56;;;;;;;4.18;1.20;;;20.10;1.00;;;;;;4911623;29;38696;-85
2024/04/06 10:00:22;;;;;;;5.85;1.38;;;20.20;1.00;;;;;;4904336;28;38945;-84
2024/04/06 10:02:53;;;;;;;4.93;1.02;;;20.30;99.90;;;;;;4909482;29;37986;-85
2024/04/06 10:05:19;;;;;;;2.45;0.93;;;20.30;99.90;;;;;;4910908;28;39632;-85
2024/04/06 10:07:49;;;;;;;11.63;1.17;;;20.50;1.00;;;;;;4914219;28;37291;-84
2024/04/06 10:10:18;;;;;;;3.65;1.27;;;20.60;99.90;;;;;;4910654;29;37922;-84
2024/04/06 10:12:46;;;;;;;5.95;1.30;;;20.60;1.00;;;;;;4910284;29;37985;-84
2024/04/06 10:15:17;;;;;;;5.90;1.05;;;20.70;99.90;;;;;;4910775;28;39712;-84
2024/04/06 10:17:50;;;;;;;2.53;0.75;;;20.80;1.00;;;;;;4902935;29;38867;-85
2024/04/06 10:20:27;;;;;;;2.60;1.10;;;20.80;1.00;;;;;;4900831;29;39322;-84
2024/04/06 10:23:00;;;;;;;4.22;1.15;;;20.80;1.00;;;;;;4911511;29;37887;-85
2024/04/06 10:25:38;;;;;;;3.67;1.10;;;20.90;24.40;;;;;;4912076;28;39482;-82
2024/04/06 10:28:06;;;;;;;5.53;1.05;;;21.00;1.00;;;;;;4909974;28;38992;-84
2024/04/06 10:30:34;;;;;;;4.30;1.00;;;21.10;1.00;;;;;;4911361;28;38402;-84
2024/04/06 10:33:00;;;;;;;2.83;1.05;;;21.20;1.00;;;;;;4896818;29;37502;-84
2024/04/06 10:35:27;;;;;;;3.00;1.15;;;21.30;7.30;;;;;;4927167;28;40998;-84
2024/04/06 10:37:54;;;;;;;5.85;1.92;;;21.30;99.90;;;;;;4910216;29;39050;-82
2024/04/06 10:40:25;;;;;;;4.78;1.20;;;21.40;1.00;;;;;;4908776;28;39458;-84
2024/04/06 10:42:52;;;;;;;2.78;1.23;;;21.60;1.00;;;;;;4909681;29;37276;-84
2024/04/06 10:45:18;;;;;;;3.13;1.38;;;21.80;1.00;;;;;;4910430;29;39208;-83
2024/04/06 10:47:44;;;;;;;5.60;1.30;;;21.80;1.00;;;;;;4905801;29;38947;-83
2024/04/06 10:50:10;;;;;;;7.03;1.30;;;21.90;99.90;;;;;;4905516;28;38995;-83
2024/04/06 10:52:38;;;;;;;5.45;1.13;;;22.10;99.90;;;;;;4913366;28;37839;-83
2024/04/06 10:55:15;;;;;;;2.60;1.00;;;22.00;99.90;;;;;;4904283;28;38957;-84
2024/04/06 10:57:45;;;;;;;1.60;0.75;;;22.20;99.90;;;;;;4906156;29;47229;-84
2024/04/06 11:00:13;;;;;;;2.95;1.35;;;22.40;1.00;;;;;;4909287;29;39477;-83
2024/04/06 11:02:43;;;;;;;4.88;0.80;;;22.20;1.00;;;;;;4909036;29;38941;-85
2024/04/06 11:05:10;;;;;;;4.07;1.05;;;22.30;1.00;;;;;;4910610;28;38756;-83
2024/04/06 11:07:40;;;;;;;1.63;0.95;;;22.40;99.90;;;;;;4914658;29;39419;-82
2024/04/06 11:10:11;;;;;;;1.85;1.00;;;22.40;99.90;;;;;;4908581;28;38315;-83
2024/04/06 11:12:39;;;;;;;3.35;1.15;;;22.40;99.90;;;;;;4915438;29;37393;-84
2024/04/06 11:15:09;;;;;;;2.33;0.80;;;22.20;99.90;;;;;;4913494;28;38045;-84
2024/04/06 11:17:35;;;;;;;2.67;0.70;;;22.40;99.90;;;;;;4908371;28;38490;-84
2024/04/06 11:20:04;;;;;;;2.28;0.77;;;22.50;99.90;;;;;;4913272;29;36821;-85
2024/04/06 11:22:30;;;;;;;11.80;1.20;;;22.70;1.00;;;;;;4913086;28;37195;-83
2024/04/06 11:24:57;;;;;;;2.35;0.95;;;22.80;1.00;;;;;;4910393;28;37448;-83
2024/04/06 11:27:24;;;;;;;2.45;0.93;;;22.90;1.00;;;;;;4910325;28;37382;-85
2024/04/06 11:29:51;;;;;;;2.35;1.08;;;22.90;1.00;;;;;;4912318;28;37420;-83
2024/04/06 11:32:21;;;;;;;3.10;1.05;;;23.00;1.00;;;;;;4900306;29;36515;-84
2024/04/06 11:34:48;;;;;;;3.75;0.68;;;23.00;1.00;;;;;;4912769;28;38741;-84
2024/04/06 11:37:16;;;;;;;2.92;1.10;;;22.90;1.00;;;;;;4913938;28;37501;-85
2024/04/06 11:39:42;;;;;;;2.40;1.00;;;23.00;1.00;;;;;;4914092;28;38690;-84
2024/04/06 11:42:09;;;;;;;2.15;1.10;;;23.00;1.00;;;;;;4912730;28;35896;-84
2024/04/06 11:44:35;;;;;;;3.38;0.85;;;23.00;1.00;;;;;;4911524;28;38694;-85
2024/04/06 11:47:02;;;;;;;4.15;1.08;;;22.90;1.00;;;;;;4919473;29;38093;-84
2024/04/06 11:49:28;;;;;;;3.42;1.10;;;22.90;1.00;;;;;;4912557;29;47135;-84
2024/04/06 11:51:54;;;;;;;2.88;0.93;;;22.90;1.00;;;;;;4910908;29;36199;-83
2024/04/06 11:54:21;;;;;;;4.63;0.80;;;22.80;1.00;;;;;;4911106;29;37697;-85
2024/04/06 11:56:48;;;;;;;2.63;1.02;;;23.00;1.00;;;;;;4903005;29;38877;-84
2024/04/06 11:59:15;;;;;;;2.55;0.90;;;23.10;1.00;;;;;;4912080;29;37874;-82
2024/04/06 12:01:41;;;;;;;1.88;0.77;;;23.20;1.00;;;;;;4912953;29;39001;-84
2024/04/06 12:04:08;;;;;;;6.10;1.20;;;23.20;1.00;;;;;;4908352;28;37882;-84
2024/04/06 12:06:34;;;;;;;6.53;1.30;;;23.10;1.00;;;;;;4912524;29;37403;-84
2024/04/06 12:09:00;;;;;;;2.00;1.08;;;23.10;1.00;;;;;;4903460;29;39169;-83
2024/04/06 12:11:27;;;;;;;4.68;0.88;;;22.90;1.00;;;;;;4922422;28;36242;-85
2024/04/06 12:13:53;;;;;;;3.45;1.23;;;22.90;1.00;;;;;;4912157;29;38352;-83
2024/04/06 12:16:19;;;;;;;3.00;1.20;;;22.80;1.00;;;;;;4914463;28;39195;-83
2024/04/06 12:18:46;;;;;;;2.05;0.98;;;22.80;1.00;;;;;;4909311;28;38113;-83
2024/04/06 12:21:12;;;;;;;2.00;1.00;;;22.80;1.00;;;;;;4914021;28;36500;-84
2024/04/06 12:23:38;;;;;;;4.40;0.90;;;22.90;1.00;;;;;;4910823;29;38524;-84
2024/04/06 12:26:05;;;;;;;3.08;0.98;;;23.10;1.00;;;;;;4906474;29;37637;-83
2024/04/06 12:28:31;;;;;;;5.05;0.93;;;23.40;1.00;;;;;;4909637;29;37244;-84
2024/04/06 12:30:57;;;;;;;3.03;0.88;;;23.60;1.00;;;;;;4912410;29;38397;-83
2024/04/06 12:33:23;;;;;;;3.63;0.70;;;23.70;1.00;;;;;;4907687;28;37318;-85
2024/04/06 12:35:51;;;;;;;2.38;0.88;;;23.80;1.00;;;;;;4909531;29;38339;-85
2024/04/06 12:38:17;;;;;;;1.75;1.00;;;23.90;1.00;;;;;;4910368;29;39250;-84
2024/04/06 12:40:44;;;;;;;3.15;0.90;;;23.80;1.00;;;;;;4912695;28;38893;-85
2024/04/06 12:43:10;;;;;;;4.65;1.17;;;23.80;99.90;;;;;;4912285;29;37991;-83
2024/04/06 12:45:38;;;;;;;2.83;0.98;;;24.00;99.90;;;;;;4911481;29;39015;-84
2024/04/06 12:48:04;;;;;;;9.70;2.35;;;24.00;99.90;;;;;;4910921;28;37936;-83
2024/04/06 12:50:31;;;;;;;2.03;0.80;;;24.00;99.90;;;;;;4909610;28;37563;-85
2024/04/06 12:52:57;;;;;;;2.58;0.98;;;24.00;99.90;;;;;;4920460;28;39355;-82
2024/04/06 12:55:23;;;;;;;2.50;0.98;;;24.00;99.90;;;;;;4920119;28;38749;-83
2024/04/06 12:57:50;;;;;;;2.55;1.15;;;24.00;99.90;;;;;;4923933;29;37633;-84
2024/04/06 13:00:19;;;;;;;3.63;1.10;;;23.80;99.90;;;;;;4906905;29;37007;-84
2024/04/06 13:02:45;;;;;;;2.33;0.90;;;24.00;99.90;;;;;;4911503;29;40129;-84
2024/04/06 13:05:12;;;;;;;1.48;0.82;;;24.00;99.90;;;;;;4908190;28;37314;-84
2024/04/06 13:07:39;;;;;;;3.63;1.20;;;23.90;99.90;;;;;;4911194;29;41452;-84
2024/04/06 13:10:07;;;;;;;3.35;0.80;;;24.00;99.90;;;;;;4911349;29;36191;-83
2024/04/06 13:12:37;;;;;;;9.43;1.10;;;24.00;99.90;;;;;;4912432;29;38050;-83
2024/04/06 13:15:07;;;;;;;2.83;1.02;;;24.00;99.90;;;;;;4910491;29;39839;-85
2024/04/06 13:17:34;;;;;;;2.35;0.90;;;24.00;99.90;;;;;;4913405;29;48725;-86
2024/04/06 13:20:09;;;;;;;4.18;1.00;;;24.00;99.90;;;;;;4906833;29;37724;-84
2024/04/06 13:22:37;;;;;;;11.90;1.30;;;24.00;99.90;;;;;;4888308;29;47117;-83
2024/04/06 13:25:04;;;;;;;2.15;0.68;;;24.10;99.90;;;;;;4911247;29;39535;-84
2024/04/06 13:27:30;;;;;;;2.03;0.80;;;24.10;99.90;;;;;;4908071;28;38543;-86
2024/04/06 13:29:57;;;;;;;2.67;0.80;;;24.00;99.90;;;;;;4912965;28;37123;-85
2024/04/06 13:32:23;;;;;;;3.90;1.10;;;24.10;99.90;;;;;;4910983;28;37630;-84
2024/04/06 13:34:54;;;;;;;2.65;0.90;;;23.90;99.90;;;;;;4911180;28;38669;-84
2024/04/06 13:37:21;;;;;;;6.40;0.90;;;24.00;99.90;;;;;;4917003;28;37382;-85
2024/04/06 13:39:47;;;;;;;4.35;1.13;;;24.00;99.90;;;;;;4913410;29;36362;-86